createdAt,value
2024-01-11T00:00:55.233Z,33.56
2024-01-11T00:01:54.822Z,33.44
2024-01-11T00:02:54.817Z,31.17
2024-01-11T00:03:54.802Z,30.78
2024-01-11T00:04:54.871Z,31.33
2024-01-11T00:05:54.908Z,32.16
2024-01-11T00:06:54.908Z,31.56
2024-01-11T00:07:54.817Z,32.51
2024-01-11T00:08:54.879Z,32.35
2024-01-11T00:09:54.897Z,32.10
2024-01-11T00:10:55.905Z,31.26
2024-01-11T00:11:54.810Z,31.93
2024-01-11T00:12:54.924Z,31.46
2024-01-11T00:13:54.932Z,33.20
2024-01-11T00:14:54.978Z,33.02
2024-01-11T00:15:54.950Z,32.17
2024-01-11T00:16:54.925Z,31.43
2024-01-11T00:17:55.049Z,31.21
2024-01-11T00:18:55.064Z,30.04
2024-01-11T00:19:55.991Z,32.09
2024-01-11T00:20:55.020Z,30.26
2024-01-11T00:21:55.015Z,32.26
2024-01-11T00:22:55.017Z,30.69
2024-01-11T00:23:55.039Z,31.75
2024-01-11T00:24:55.100Z,30.62
2024-01-11T00:25:55.085Z,31.44
2024-01-11T00:26:55.072Z,31.66
2024-01-11T00:27:55.121Z,32.15
2024-01-11T00:28:55.180Z,33.09
2024-01-11T00:29:55.067Z,29.81
2024-01-11T00:30:55.077Z,31.06
2024-01-11T00:31:55.084Z,30.37
2024-01-11T00:32:56.140Z,31.76
2024-01-11T00:33:55.199Z,31.69
2024-01-11T00:34:55.176Z,31.14
2024-01-11T00:35:55.108Z,31.19
2024-01-11T00:36:55.080Z,29.96
2024-01-11T00:37:55.105Z,31.39
2024-01-11T00:38:55.112Z,31.16
2024-01-11T00:39:55.069Z,29.05
2024-01-11T00:40:55.098Z,28.43
2024-01-11T00:41:55.102Z,27.77
2024-01-11T00:42:56.053Z,29.30
2024-01-11T00:43:55.154Z,30.43
2024-01-11T00:44:55.163Z,29.53
2024-01-11T00:45:55.127Z,30.11
2024-01-11T00:46:55.183Z,28.75
2024-01-11T00:47:55.257Z,29.22
2024-01-11T00:48:56.780Z,30.58
2024-01-11T00:49:55.321Z,28.37
2024-01-11T00:50:56.188Z,28.30
2024-01-11T00:51:55.177Z,30.30
2024-01-11T00:52:55.226Z,29.09
2024-01-11T00:53:55.184Z,29.10
2024-01-11T00:54:55.191Z,28.42
2024-01-11T00:55:55.344Z,29.93
2024-01-11T00:56:55.317Z,29.33
2024-01-11T00:57:55.247Z,29.64
2024-01-11T00:58:56.164Z,27.07
2024-01-11T00:59:55.231Z,29.52
2024-01-11T01:00:55.179Z,28.58
2024-01-11T01:01:55.196Z,29.04
2024-01-11T01:02:56.077Z,29.46
2024-01-11T01:03:55.191Z,29.65
2024-01-11T01:04:56.178Z,29.60
2024-01-11T01:05:55.352Z,29.95
2024-01-11T01:06:55.254Z,29.49
2024-01-11T01:07:55.314Z,30.05
2024-01-11T01:08:55.374Z,26.22
2024-01-11T01:09:55.188Z,29.30
2024-01-11T01:10:55.307Z,28.10
2024-01-11T01:11:55.276Z,28.42
2024-01-11T01:12:55.322Z,29.04
2024-01-11T01:13:55.314Z,28.07
2024-01-11T01:14:55.279Z,27.38
2024-01-11T01:15:55.262Z,27.64
2024-01-11T01:16:55.199Z,27.18
2024-01-11T01:17:55.503Z,28.11
2024-01-11T01:18:55.332Z,27.86
2024-01-11T01:19:55.349Z,27.69
2024-01-11T01:20:55.300Z,28.66
2024-01-11T01:21:55.269Z,28.47
2024-01-11T01:22:55.287Z,27.88
2024-01-11T01:23:55.287Z,27.86
2024-01-11T01:24:55.325Z,28.81
2024-01-11T01:25:55.314Z,27.98
2024-01-11T01:26:55.299Z,28.28
2024-01-11T01:27:55.382Z,27.99
2024-01-11T01:28:55.299Z,29.06
2024-01-11T01:29:55.326Z,28.53
2024-01-11T01:30:55.383Z,30.09
2024-01-11T01:31:55.474Z,29.53
2024-01-11T01:32:55.435Z,28.16
2024-01-11T01:33:55.414Z,28.50
2024-01-11T01:34:55.323Z,27.81
2024-01-11T01:35:55.285Z,28.18
2024-01-11T01:36:55.337Z,28.52
2024-01-11T01:37:55.271Z,29.18
2024-01-11T01:38:55.370Z,30.14
2024-01-11T01:39:55.322Z,28.54
2024-01-11T01:40:55.461Z,28.72
2024-01-11T01:41:55.192Z,30.02
2024-01-11T01:42:55.302Z,29.93
2024-01-11T01:43:55.287Z,29.98
2024-01-11T01:44:55.339Z,29.59
2024-01-11T01:45:55.439Z,30.17
2024-01-11T01:46:55.369Z,28.37
2024-01-11T01:47:55.394Z,28.82
2024-01-11T01:48:55.403Z,29.43
2024-01-11T01:49:55.384Z,29.89
2024-01-11T01:50:55.357Z,29.61
2024-01-11T01:51:55.372Z,29.19
2024-01-11T01:52:55.386Z,28.22
2024-01-11T01:53:55.317Z,27.88
2024-01-11T01:54:55.311Z,27.52
2024-01-11T01:55:55.304Z,28.16
2024-01-11T01:56:55.333Z,27.34
2024-01-11T01:57:55.432Z,28.34
2024-01-11T01:58:55.377Z,27.57
2024-01-11T01:59:55.425Z,27.63
2024-01-11T02:00:56.197Z,28.67
2024-01-11T02:01:55.430Z,27.90
2024-01-11T02:02:55.500Z,28.75
2024-01-11T02:03:55.504Z,27.51
2024-01-11T02:04:55.512Z,27.59
2024-01-11T02:05:55.593Z,28.75
2024-01-11T02:06:55.457Z,27.73
2024-01-11T02:07:55.392Z,27.27
2024-01-11T02:08:55.401Z,28.57
2024-01-11T02:09:55.493Z,28.23
2024-01-11T02:10:55.508Z,27.68
2024-01-11T02:11:55.480Z,28.52
2024-01-11T02:12:56.073Z,27.70
2024-01-11T02:13:55.470Z,28.88
2024-01-11T02:14:55.468Z,28.21
2024-01-11T02:15:55.360Z,26.66
2024-01-11T02:16:55.490Z,27.61
2024-01-11T02:17:55.485Z,25.67
2024-01-11T02:18:55.480Z,28.37
2024-01-11T02:19:55.537Z,28.79
2024-01-11T02:20:55.428Z,28.09
2024-01-11T02:21:55.417Z,28.42
2024-01-11T02:22:56.174Z,26.34
2024-01-11T02:23:55.476Z,26.61
2024-01-11T02:24:55.460Z,26.17
2024-01-11T02:25:55.433Z,27.06
2024-01-11T02:26:55.468Z,26.05
2024-01-11T02:27:55.419Z,27.00
2024-01-11T02:28:55.492Z,26.47
2024-01-11T02:29:55.359Z,26.63
2024-01-11T02:30:55.476Z,25.69
2024-01-11T02:31:56.056Z,25.55
2024-01-11T02:32:55.664Z,23.88
2024-01-11T02:33:55.418Z,24.96
2024-01-11T02:34:56.141Z,24.96
2024-01-11T02:35:55.359Z,24.64
2024-01-11T02:36:55.362Z,25.32
2024-01-11T02:37:56.182Z,25.37
2024-01-11T02:38:55.367Z,24.88
2024-01-11T02:39:56.048Z,24.95
2024-01-11T02:40:55.337Z,26.09
2024-01-11T02:41:55.311Z,25.56
2024-01-11T02:42:57.009Z,24.35
2024-01-11T02:43:55.350Z,25.28
2024-01-11T02:44:55.302Z,25.27
2024-01-11T02:45:56.170Z,26.14
2024-01-11T02:46:55.370Z,25.23
2024-01-11T02:47:55.358Z,24.93
2024-01-11T02:48:55.382Z,26.06
2024-01-11T02:49:55.326Z,25.16
2024-01-11T02:50:55.346Z,24.25
2024-01-11T02:51:55.192Z,24.02
2024-01-11T02:52:55.287Z,24.68
2024-01-11T02:53:55.269Z,25.08
2024-01-11T02:54:56.139Z,26.58
2024-01-11T02:55:55.344Z,25.04
2024-01-11T02:56:55.248Z,25.44
2024-01-11T02:57:55.261Z,24.94
2024-01-11T02:58:55.401Z,24.43
2024-01-11T02:59:55.318Z,24.65
2024-01-11T03:00:55.317Z,24.12
2024-01-11T03:01:55.323Z,24.44
2024-01-11T03:02:55.295Z,24.18
2024-01-11T03:03:55.394Z,24.63
2024-01-11T03:04:55.301Z,24.90
2024-01-11T03:05:55.398Z,24.33
2024-01-11T03:06:55.338Z,25.27
2024-01-11T03:07:55.300Z,24.74
2024-01-11T03:08:55.311Z,25.02
2024-01-11T03:09:55.287Z,24.55
2024-01-11T03:10:55.324Z,24.72
2024-01-11T03:11:55.258Z,25.10
2024-01-11T03:12:55.272Z,23.48
2024-01-11T03:13:55.279Z,22.15
2024-01-11T03:14:55.268Z,25.54
2024-01-11T03:15:55.280Z,24.57
2024-01-11T03:16:55.286Z,25.10
2024-01-11T03:17:55.451Z,23.95
2024-01-11T03:18:55.358Z,24.63
2024-01-11T03:19:55.403Z,25.16
2024-01-11T03:20:55.989Z,24.54
2024-01-11T03:21:55.376Z,23.39
2024-01-11T03:22:55.319Z,23.68
2024-01-11T03:23:55.260Z,24.52
2024-01-11T03:24:55.309Z,23.61
2024-01-11T03:25:55.359Z,23.22
2024-01-11T03:26:55.292Z,22.92
2024-01-11T03:27:55.338Z,22.33
2024-01-11T03:28:55.387Z,22.51
2024-01-11T03:29:55.328Z,22.85
2024-01-11T03:30:55.410Z,24.35
2024-01-11T03:31:55.390Z,23.59
2024-01-11T03:32:55.469Z,22.88
2024-01-11T03:33:55.357Z,22.73
2024-01-11T03:34:56.142Z,24.82
2024-01-11T03:35:55.259Z,24.49
2024-01-11T03:36:55.288Z,22.76
2024-01-11T03:37:55.306Z,24.67
2024-01-11T03:38:55.266Z,24.64
2024-01-11T03:39:55.301Z,22.16
2024-01-11T03:40:55.326Z,22.80
2024-01-11T03:41:55.246Z,24.46
2024-01-11T03:42:55.226Z,22.79
2024-01-11T03:43:55.268Z,23.72
2024-01-11T03:44:55.285Z,23.65
2024-01-11T03:45:55.272Z,24.18
2024-01-11T03:46:55.342Z,23.60
2024-01-11T03:47:55.357Z,23.44
2024-01-11T03:48:56.024Z,23.17
2024-01-11T03:49:55.383Z,23.30
2024-01-11T03:50:55.331Z,21.50
2024-01-11T03:51:55.333Z,22.96
2024-01-11T03:52:55.570Z,22.24
2024-01-11T03:53:55.474Z,24.09
2024-01-11T03:54:55.407Z,23.28
2024-01-11T03:55:55.369Z,23.86
2024-01-11T03:56:55.416Z,23.59
2024-01-11T03:57:55.388Z,22.37
2024-01-11T03:58:55.466Z,22.58
2024-01-11T03:59:56.087Z,22.75
2024-01-11T04:00:55.407Z,23.24
2024-01-11T04:01:55.403Z,21.88
2024-01-11T04:02:55.364Z,21.52
2024-01-11T04:03:55.545Z,21.70
2024-01-11T04:04:55.402Z,21.83
2024-01-11T04:05:55.441Z,21.51
2024-01-11T04:06:55.373Z,22.16
2024-01-11T04:07:55.420Z,22.54
2024-01-11T04:08:55.328Z,21.83
2024-01-11T04:09:55.370Z,22.71
2024-01-11T04:10:56.106Z,22.78
2024-01-11T04:11:55.358Z,21.64
2024-01-11T04:12:55.307Z,22.30
2024-01-11T04:13:55.382Z,22.69
2024-01-11T04:14:55.300Z,21.62
2024-01-11T04:15:55.326Z,22.73
2024-01-11T04:16:55.395Z,21.24
2024-01-11T04:17:55.373Z,23.42
2024-01-11T04:18:55.300Z,22.00
2024-01-11T04:19:55.370Z,21.83
2024-01-11T04:20:55.243Z,22.75
2024-01-11T04:21:55.286Z,21.53
2024-01-11T04:22:55.265Z,23.26
2024-01-11T04:23:55.250Z,23.53
2024-01-11T04:24:55.306Z,21.90
2024-01-11T04:25:55.216Z,22.13
2024-01-11T04:26:56.138Z,22.86
2024-01-11T04:27:55.244Z,22.69
2024-01-11T04:28:57.917Z,22.57
2024-01-11T04:29:55.316Z,24.50
2024-01-11T04:30:55.377Z,23.05
2024-01-11T04:31:55.262Z,24.16
2024-01-11T04:32:55.337Z,23.64
2024-01-11T04:33:56.263Z,22.53
2024-01-11T04:34:55.280Z,22.55
2024-01-11T04:35:55.036Z,23.40
2024-01-11T04:36:55.171Z,22.28
2024-01-11T04:37:55.188Z,24.58
2024-01-11T04:38:55.144Z,22.11
2024-01-11T04:39:55.090Z,22.45
2024-01-11T04:40:55.214Z,21.24
2024-01-11T04:41:55.162Z,20.80
2024-01-11T04:42:55.170Z,22.47
2024-01-11T04:43:55.231Z,22.60
2024-01-11T04:44:55.167Z,23.07
2024-01-11T04:45:55.202Z,21.95
2024-01-11T04:46:55.216Z,23.31
2024-01-11T04:47:55.539Z,22.86
2024-01-11T04:48:55.366Z,21.93
2024-01-11T04:49:55.286Z,22.32
2024-01-11T04:50:55.237Z,21.77
2024-01-11T04:51:55.191Z,22.99
2024-01-11T04:52:55.234Z,21.27
2024-01-11T04:53:55.223Z,22.54
2024-01-11T04:54:55.247Z,23.41
2024-01-11T04:55:55.172Z,22.22
2024-01-11T04:56:55.176Z,23.94
2024-01-11T04:57:55.180Z,22.86
2024-01-11T04:58:55.245Z,23.90
2024-01-11T04:59:55.234Z,23.55
2024-01-11T05:00:55.316Z,23.83
2024-01-11T05:01:55.224Z,24.67
2024-01-11T05:02:55.370Z,24.20
2024-01-11T05:03:55.254Z,24.21
2024-01-11T05:04:55.233Z,22.12
2024-01-11T05:05:55.277Z,21.80
2024-01-11T05:06:55.270Z,23.63
2024-01-11T05:07:55.245Z,23.63
2024-01-11T05:08:56.111Z,22.79
2024-01-11T05:09:55.246Z,22.15
2024-01-11T05:10:55.252Z,22.44
2024-01-11T05:11:55.255Z,22.75
2024-01-11T05:12:55.261Z,21.77
2024-01-11T05:13:55.312Z,21.72
2024-01-11T05:14:56.085Z,23.97
2024-01-11T05:15:55.265Z,23.32
2024-01-11T05:16:55.350Z,23.36
2024-01-11T05:17:55.466Z,22.56
2024-01-11T05:18:55.414Z,21.23
2024-01-11T05:19:55.312Z,22.48
2024-01-11T05:20:56.159Z,23.26
2024-01-11T05:21:55.274Z,21.93
2024-01-11T05:22:56.134Z,22.68
2024-01-11T05:23:55.290Z,23.20
2024-01-11T05:24:55.342Z,21.31
2024-01-11T05:25:55.347Z,23.19
2024-01-11T05:26:55.337Z,21.71
2024-01-11T05:27:55.308Z,22.54
2024-01-11T05:28:55.354Z,21.53
2024-01-11T05:29:55.206Z,22.05
2024-01-11T05:30:56.301Z,22.42
2024-01-11T05:31:55.423Z,21.61
2024-01-11T05:41:13.902Z,22.26
2024-01-11T05:42:03.492Z,22.22
2024-01-11T05:43:03.531Z,21.82
2024-01-11T05:44:03.587Z,21.60
2024-01-11T05:45:03.612Z,21.81
2024-01-11T05:46:03.629Z,22.16
2024-01-11T05:47:03.654Z,21.90
2024-01-11T05:48:03.741Z,23.13
2024-01-11T05:49:03.738Z,21.41
2024-01-11T05:50:03.775Z,22.85
2024-01-11T05:51:03.781Z,21.53
2024-01-11T05:52:03.936Z,23.15
2024-01-11T05:53:03.765Z,22.65
2024-01-11T05:54:03.810Z,22.08
2024-01-11T05:55:03.959Z,21.50
2024-01-11T05:56:04.043Z,23.57
2024-01-11T05:57:04.175Z,22.29
2024-01-11T05:58:04.175Z,24.30
2024-01-11T05:59:04.237Z,23.29
2024-01-11T06:00:04.302Z,22.44
2024-01-11T06:02:27.216Z,23.13
2024-01-11T06:03:04.769Z,23.57
2024-01-11T06:04:04.466Z,22.57
2024-01-11T06:05:04.562Z,23.34
2024-01-11T06:06:04.735Z,23.10
2024-01-11T06:07:05.292Z,23.33
2024-01-11T06:08:04.529Z,22.03
2024-01-11T06:09:04.599Z,22.55
2024-01-11T06:10:04.596Z,21.98
2024-01-11T06:11:04.635Z,22.19
2024-01-11T06:12:04.623Z,21.84
2024-01-11T06:13:04.624Z,23.81
2024-01-11T06:14:06.492Z,22.66
2024-01-11T06:15:04.868Z,21.30
2024-01-11T06:16:04.760Z,21.57
2024-01-11T06:17:04.873Z,23.35
2024-01-11T06:18:04.838Z,23.12
2024-01-11T06:19:04.976Z,24.91
2024-01-11T06:20:05.050Z,24.62
2024-01-11T06:21:05.096Z,27.80
2024-01-11T06:22:05.211Z,25.83
2024-01-11T06:23:05.323Z,22.24
2024-01-11T06:24:05.220Z,23.47
2024-01-11T06:25:05.430Z,24.03
2024-01-11T06:26:05.599Z,22.43
2024-01-11T06:27:05.638Z,24.53
2024-01-11T06:28:05.646Z,22.84
2024-01-11T06:29:05.787Z,24.43
2024-01-11T06:30:06.193Z,23.85
2024-01-11T06:31:05.994Z,22.01
2024-01-11T06:32:05.837Z,23.03
2024-01-11T06:33:06.035Z,22.13
2024-01-11T06:34:06.028Z,24.23
2024-01-11T06:35:06.664Z,22.41
2024-01-11T06:36:06.208Z,21.47
2024-01-11T06:37:06.140Z,23.25
2024-01-11T06:38:06.266Z,22.80
2024-01-11T06:39:06.148Z,22.06
2024-01-11T06:40:06.654Z,22.17
2024-01-11T06:41:06.263Z,20.39
2024-01-11T06:42:06.374Z,20.83
2024-01-11T06:43:06.572Z,20.90
2024-01-11T06:44:06.448Z,24.34
2024-01-11T06:45:06.510Z,24.08
2024-01-11T06:47:29.054Z,23.21
2024-01-11T06:48:06.581Z,24.87
2024-01-11T06:49:06.955Z,22.91
2024-01-11T06:50:06.706Z,21.69
2024-01-11T06:51:06.712Z,24.20
2024-01-11T06:52:06.584Z,22.42
2024-01-11T06:53:06.799Z,23.11
2024-01-11T06:54:06.576Z,22.73
2024-01-11T06:55:06.698Z,22.67
2024-01-11T06:56:06.712Z,21.65
2024-01-11T06:57:06.646Z,23.19
2024-01-11T06:58:06.829Z,22.65
2024-01-11T06:59:06.744Z,21.98
2024-01-11T07:00:07.045Z,21.42
2024-01-11T07:01:06.844Z,21.85
2024-01-11T07:02:06.889Z,22.42
2024-01-11T07:03:06.862Z,22.08
2024-01-11T07:04:07.029Z,22.11
2024-01-11T07:05:07.082Z,22.15
2024-01-11T07:06:07.304Z,26.58
2024-01-11T07:07:07.073Z,23.37
2024-01-11T07:08:07.283Z,22.33
2024-01-11T07:09:07.324Z,22.49
2024-01-11T07:10:07.396Z,22.12
2024-01-11T07:11:07.468Z,21.06
2024-01-11T07:12:07.895Z,22.30
2024-01-11T07:13:08.074Z,22.56
2024-01-11T07:14:07.763Z,22.44
2024-01-11T07:15:08.154Z,22.35
2024-01-11T07:16:07.745Z,21.37
2024-01-11T07:17:07.860Z,21.21
2024-01-11T07:18:08.002Z,20.67
2024-01-11T07:19:08.943Z,22.46
2024-01-11T07:20:08.478Z,22.44
2024-01-11T07:21:08.101Z,21.93
2024-01-11T07:22:07.986Z,22.66
2024-01-11T07:23:08.045Z,23.26
2024-01-11T07:24:08.115Z,22.96
2024-01-11T07:25:08.539Z,22.09
2024-01-11T07:26:08.384Z,21.56
2024-01-11T07:27:08.258Z,21.04
2024-01-11T07:28:08.408Z,20.77
2024-01-11T07:29:08.488Z,22.74
2024-01-11T07:30:08.510Z,21.06
2024-01-11T07:31:08.808Z,21.62
2024-01-11T07:32:08.604Z,20.58
2024-01-11T07:33:10.864Z,22.15
2024-01-11T07:34:08.646Z,22.00
2024-01-11T07:35:12.162Z,21.40
2024-01-11T07:36:10.070Z,21.06
2024-01-11T07:37:09.313Z,22.27
2024-01-11T07:38:09.073Z,24.25
2024-01-11T07:39:10.532Z,21.68
2024-01-11T07:40:09.330Z,22.22
2024-01-11T07:41:09.602Z,21.57
2024-01-11T07:42:09.156Z,23.37
2024-01-11T07:43:09.840Z,21.70
2024-01-11T07:44:09.198Z,21.94
2024-01-11T07:45:09.666Z,22.56
2024-01-11T07:46:09.752Z,22.83
2024-01-11T07:47:09.860Z,21.29
2024-01-11T07:48:09.598Z,24.25
2024-01-11T07:49:10.221Z,21.69
2024-01-11T07:50:09.621Z,22.05
2024-01-11T07:51:09.645Z,23.34
2024-01-11T07:52:10.229Z,22.60
2024-01-11T07:53:09.988Z,21.23
2024-01-11T07:54:09.780Z,22.85
2024-01-11T07:55:10.457Z,22.64
2024-01-11T07:56:09.930Z,22.91
2024-01-11T07:57:10.604Z,21.66
2024-01-11T07:58:09.999Z,21.91
2024-01-11T07:59:10.412Z,22.27
2024-01-11T08:00:10.515Z,21.73
2024-01-11T08:01:11.008Z,22.71
2024-01-11T08:02:10.564Z,21.87
2024-01-11T08:03:10.485Z,21.23
2024-01-11T08:04:10.671Z,21.51
2024-01-11T08:05:12.457Z,22.32
2024-01-11T08:06:11.536Z,21.76
2024-01-11T08:07:11.355Z,23.34
2024-01-11T08:08:10.583Z,23.33
2024-01-11T08:09:11.518Z,23.91
2024-01-11T08:10:34.632Z,23.24
2024-01-11T08:11:10.878Z,22.34
2024-01-11T08:12:11.231Z,22.70
2024-01-11T08:13:11.753Z,23.03
2024-01-11T08:14:11.041Z,23.00
2024-01-11T08:15:11.238Z,22.83
2024-01-11T08:16:11.726Z,22.82
2024-01-11T08:17:12.377Z,23.20
2024-01-11T08:18:11.967Z,22.29
2024-01-11T08:19:11.424Z,22.55
2024-01-11T08:20:11.419Z,22.11
2024-01-11T08:21:11.455Z,22.46
2024-01-11T08:22:11.058Z,22.68
2024-01-11T08:23:11.883Z,22.15
2024-01-11T08:24:11.181Z,22.57
2024-01-11T08:25:12.047Z,21.72
2024-01-11T08:26:12.060Z,22.11
2024-01-11T08:27:11.292Z,22.95
2024-01-11T08:28:11.922Z,22.33
2024-01-11T08:29:11.589Z,22.07
2024-01-11T08:30:11.716Z,24.14
2024-01-11T08:31:11.625Z,23.45
2024-01-11T08:32:19.984Z,24.99
2024-01-11T08:33:12.966Z,24.07
2024-01-11T08:34:15.273Z,23.76
2024-01-11T08:35:11.882Z,23.07
2024-01-11T08:36:11.566Z,23.03
2024-01-11T08:37:11.412Z,23.37
2024-01-11T08:38:12.082Z,23.22
2024-01-11T08:39:11.465Z,22.98
2024-01-11T08:40:11.484Z,24.24
2024-01-11T08:41:11.613Z,23.85
2024-01-11T08:42:11.591Z,25.37
2024-01-11T08:43:11.763Z,25.75
2024-01-11T08:44:12.144Z,24.58
2024-01-11T08:45:11.611Z,24.65
2024-01-11T08:46:11.619Z,23.53
2024-01-11T08:47:11.678Z,24.70
2024-01-11T08:48:11.794Z,23.87
2024-01-11T08:49:11.847Z,23.53
2024-01-11T08:50:11.680Z,25.91
2024-01-11T08:51:12.232Z,24.96
2024-01-11T08:52:11.832Z,24.40
2024-01-11T08:53:11.896Z,30.58
2024-01-11T08:54:11.792Z,26.82
2024-01-11T08:55:11.805Z,26.62
2024-01-11T08:56:12.273Z,26.47
2024-01-11T08:57:12.133Z,25.09
2024-01-11T08:58:37.634Z,23.75
2024-01-11T08:59:11.940Z,24.97
2024-01-11T09:00:11.885Z,25.63
2024-01-11T09:01:12.094Z,23.85
2024-01-11T09:02:15.850Z,24.25
2024-01-11T09:03:13.576Z,23.84
2024-01-11T09:04:12.093Z,24.29
2024-01-11T09:05:12.054Z,23.03
2024-01-11T09:06:12.232Z,21.79
2024-01-11T09:07:12.394Z,22.80
2024-01-11T09:08:12.229Z,21.35
2024-01-11T09:09:12.464Z,22.29
2024-01-11T09:10:12.441Z,22.95
2024-01-11T09:11:12.806Z,22.39
2024-01-11T09:12:12.690Z,23.72
2024-01-11T09:13:14.099Z,23.45
2024-01-11T09:14:12.838Z,23.20
2024-01-11T09:15:12.746Z,23.72
2024-01-11T09:16:12.799Z,22.83
2024-01-11T09:17:12.969Z,24.31
2024-01-11T09:18:13.426Z,23.23
2024-01-11T09:19:13.174Z,22.94
2024-01-11T09:20:13.368Z,24.59
2024-01-11T09:21:13.198Z,23.17
2024-01-11T09:22:13.595Z,24.70
2024-01-11T09:23:13.281Z,24.38
2024-01-11T09:24:13.334Z,33.28
2024-01-11T09:25:13.320Z,25.24
2024-01-11T09:26:13.491Z,24.68
2024-01-11T09:27:13.437Z,25.79
2024-01-11T09:28:13.578Z,25.27
2024-01-11T09:29:13.615Z,25.54
2024-01-11T09:30:13.639Z,25.81
2024-01-11T09:31:14.205Z,24.86
2024-01-11T09:32:13.782Z,25.67
2024-01-11T09:33:13.778Z,25.18
2024-01-11T09:34:13.997Z,24.97
2024-01-11T09:35:16.195Z,25.53
2024-01-11T09:36:14.157Z,26.55
2024-01-11T09:37:13.935Z,27.20
2024-01-11T09:38:14.290Z,24.57
2024-01-11T09:39:14.144Z,25.09
2024-01-11T09:40:14.062Z,25.07
2024-01-11T09:41:15.066Z,25.47
2024-01-11T09:42:13.996Z,24.82
2024-01-11T09:43:14.158Z,24.90
2024-01-11T09:44:14.100Z,24.14
2024-01-11T09:45:14.215Z,24.85
2024-01-11T09:46:14.680Z,26.01
2024-01-11T09:47:16.342Z,24.33
2024-01-11T09:48:14.246Z,24.29
2024-01-11T09:49:14.255Z,25.44
2024-01-11T09:50:14.439Z,25.33
2024-01-11T09:51:14.214Z,27.50
2024-01-11T09:52:14.656Z,25.20
2024-01-11T09:53:14.261Z,28.39
2024-01-11T09:54:14.216Z,28.32
2024-01-11T09:55:14.678Z,30.42
2024-01-11T09:56:14.311Z,28.76
2024-01-11T09:57:15.213Z,29.08
2024-01-11T09:58:14.518Z,30.54
2024-01-11T09:59:15.239Z,30.97
2024-01-11T10:00:14.509Z,28.90
2024-01-11T10:01:15.448Z,28.37
2024-01-11T10:02:14.690Z,26.78
2024-01-11T10:03:14.813Z,30.60
2024-01-11T10:04:15.762Z,27.23
2024-01-11T10:05:15.328Z,26.51
2024-01-11T10:06:14.358Z,26.13
2024-01-11T10:07:15.447Z,25.86
2024-01-11T10:08:15.633Z,26.92
2024-01-11T10:09:14.696Z,28.31
2024-01-11T10:10:15.424Z,30.05
2024-01-11T10:11:15.200Z,30.07
2024-01-11T10:12:15.197Z,29.18
2024-01-11T10:13:15.249Z,29.08
2024-01-11T10:14:14.666Z,28.49
2024-01-11T10:15:14.689Z,29.18
2024-01-11T10:16:23.251Z,26.75
2024-01-11T10:17:25.636Z,24.90
2024-01-11T10:18:23.319Z,23.96
2024-01-11T10:19:23.334Z,22.16
2024-01-11T10:20:22.950Z,20.54
2024-01-11T10:21:23.953Z,22.38
2024-01-11T10:22:24.852Z,22.37
2024-01-11T10:23:23.938Z,25.21
2024-01-11T10:24:23.002Z,26.42
2024-01-11T10:25:22.997Z,26.60
2024-01-11T10:26:22.722Z,27.08
2024-01-11T10:27:22.994Z,26.67
2024-01-11T10:28:22.610Z,27.07
2024-01-11T10:29:22.859Z,26.92
2024-01-11T10:30:22.624Z,26.77
2024-01-11T10:31:23.040Z,25.98
2024-01-11T10:32:23.201Z,27.59
2024-01-11T10:33:23.577Z,25.39
2024-01-11T10:34:22.612Z,24.37
2024-01-11T10:35:23.385Z,24.40
2024-01-11T10:36:23.042Z,23.53
2024-01-11T10:37:22.978Z,24.17
2024-01-11T10:38:22.862Z,24.11
2024-01-11T10:39:22.395Z,24.39
2024-01-11T10:40:22.399Z,23.03
2024-01-11T10:41:22.383Z,24.58
2024-01-11T10:42:22.716Z,23.44
2024-01-11T10:43:22.709Z,21.96
2024-01-11T10:44:22.374Z,22.05
2024-01-11T10:45:23.809Z,21.77
2024-01-11T10:46:23.034Z,21.66
2024-01-11T10:47:23.604Z,22.20
2024-01-11T10:48:22.500Z,22.30
2024-01-11T10:49:22.812Z,23.79
2024-01-11T10:50:22.423Z,21.40
2024-01-11T10:51:22.875Z,22.07
2024-01-11T10:52:23.285Z,22.63
2024-01-11T10:53:22.598Z,21.01
2024-01-11T10:54:22.715Z,21.90
2024-01-11T10:55:23.756Z,21.41
2024-01-11T10:56:23.796Z,21.68
2024-01-11T10:57:22.605Z,19.94
2024-01-11T10:58:22.774Z,19.83
2024-01-11T10:59:22.636Z,19.96
2024-01-11T11:00:24.204Z,20.45
2024-01-11T11:01:23.252Z,20.43
2024-01-11T11:02:24.062Z,20.79
2024-01-11T11:03:23.100Z,19.64
2024-01-11T11:04:24.116Z,21.01
2024-01-11T11:05:24.115Z,21.28
2024-01-11T11:06:22.621Z,20.65
2024-01-11T11:07:23.697Z,21.68
2024-01-11T11:08:23.730Z,20.97
2024-01-11T11:09:24.315Z,20.67
2024-01-11T11:10:22.366Z,18.23
2024-01-11T11:11:22.988Z,18.73
2024-01-11T11:12:23.029Z,19.43
2024-01-11T11:13:23.046Z,21.41
2024-01-11T11:14:22.988Z,19.37
2024-01-11T11:15:22.306Z,20.09
2024-01-11T11:16:22.928Z,19.02
2024-01-11T11:17:24.273Z,18.17
2024-01-11T11:18:23.535Z,17.64
2024-01-11T11:19:22.441Z,16.77
2024-01-11T11:20:22.225Z,17.45
2024-01-11T11:21:22.453Z,17.03
2024-01-11T11:22:23.009Z,17.73
2024-01-11T11:23:22.077Z,16.62
2024-01-11T11:24:23.704Z,16.85
2024-01-11T11:25:22.748Z,17.78
2024-01-11T11:26:22.321Z,19.53
2024-01-11T11:27:26.306Z,18.48
2024-01-11T11:28:23.436Z,18.08
2024-01-11T11:29:22.710Z,20.08
2024-01-11T11:30:21.844Z,19.26
2024-01-11T11:31:22.112Z,18.78
2024-01-11T11:32:22.282Z,17.68
2024-01-11T11:33:22.624Z,18.59
2024-01-11T11:34:21.765Z,20.23
2024-01-11T11:35:22.257Z,19.46
2024-01-11T11:36:21.436Z,19.19
2024-01-11T11:37:21.768Z,19.82
2024-01-11T11:38:21.393Z,20.11
2024-01-11T11:39:21.678Z,19.58
2024-01-11T11:40:21.682Z,18.61
2024-01-11T11:41:21.206Z,19.13
2024-01-11T11:42:21.186Z,18.54
2024-01-11T11:43:22.731Z,19.34
2024-01-11T11:44:21.084Z,17.98
2024-01-11T11:45:20.881Z,19.36
2024-01-11T11:46:21.407Z,18.93
2024-01-11T11:47:21.761Z,18.30
2024-01-11T11:48:20.862Z,18.44
2024-01-11T11:49:20.580Z,18.85
2024-01-11T11:50:20.618Z,16.52
2024-01-11T11:51:21.315Z,14.95
2024-01-11T11:52:20.942Z,17.60
2024-01-11T11:53:20.565Z,18.91
2024-01-11T11:54:20.555Z,18.51
2024-01-11T11:55:20.568Z,18.94
2024-01-11T11:56:20.473Z,18.49
2024-01-11T11:57:20.469Z,18.29
2024-01-11T11:58:20.683Z,18.67
2024-01-11T11:59:20.545Z,18.76
2024-01-11T12:00:20.491Z,18.56
2024-01-11T12:01:20.471Z,19.83
2024-01-11T12:02:20.423Z,18.83
2024-01-11T12:03:20.710Z,17.40
2024-01-11T12:04:20.435Z,20.37
2024-01-11T12:05:20.483Z,18.36
2024-01-11T12:06:20.282Z,19.93
2024-01-11T12:07:20.146Z,18.67
2024-01-11T12:08:20.472Z,19.24
2024-01-11T12:09:20.340Z,18.34
2024-01-11T12:10:20.093Z,20.06
2024-01-11T12:11:19.821Z,20.12
2024-01-11T12:12:19.772Z,17.35
2024-01-11T12:13:19.741Z,20.47
2024-01-11T12:14:19.644Z,19.75
2024-01-11T12:15:19.726Z,19.77
2024-01-11T12:16:19.512Z,19.74
2024-01-11T12:17:19.434Z,20.58
2024-01-11T12:18:20.228Z,21.15
2024-01-11T12:19:19.596Z,19.49
2024-01-11T12:20:19.429Z,18.91
2024-01-11T12:21:19.294Z,19.14
2024-01-11T12:22:19.684Z,17.77
2024-01-11T12:23:19.359Z,19.97
2024-01-11T12:24:19.216Z,21.18
2024-01-11T12:25:19.348Z,22.61
2024-01-11T12:26:21.098Z,22.93
2024-01-11T12:27:19.159Z,22.32
2024-01-11T12:28:21.325Z,20.63
2024-01-11T12:29:19.196Z,27.70
2024-01-11T12:30:19.728Z,22.30
2024-01-11T12:31:19.102Z,21.06
2024-01-11T12:32:19.405Z,19.86
2024-01-11T12:33:19.432Z,21.57
2024-01-11T12:34:19.137Z,20.49
2024-01-11T12:35:19.022Z,22.10
2024-01-11T12:36:18.902Z,21.79
2024-01-11T12:37:18.926Z,21.71
2024-01-11T12:38:20.048Z,20.61
2024-01-11T12:39:18.827Z,20.91
2024-01-11T12:40:18.802Z,22.87
2024-01-11T12:41:18.733Z,21.05
2024-01-11T12:42:18.744Z,20.03
2024-01-11T12:43:19.155Z,17.78
2024-01-11T12:44:18.778Z,18.04
2024-01-11T12:45:18.708Z,16.87
2024-01-11T12:46:18.660Z,17.13
2024-01-11T12:47:18.560Z,16.45
2024-01-11T12:48:18.814Z,14.27
2024-01-11T12:49:18.721Z,14.80
2024-01-11T12:50:18.662Z,14.07
2024-01-11T12:51:21.548Z,14.06
2024-01-11T12:52:18.394Z,12.63
2024-01-11T12:53:18.411Z,13.23
2024-01-11T12:54:18.296Z,13.32
2024-01-11T12:55:18.324Z,13.55
2024-01-11T12:56:18.388Z,13.85
2024-01-11T12:57:18.202Z,13.00
2024-01-11T12:58:18.126Z,13.19
2024-01-11T12:59:18.112Z,13.15
2024-01-11T13:00:17.977Z,13.64
2024-01-11T13:01:17.925Z,12.46
2024-01-11T13:02:19.560Z,12.77
2024-01-11T13:03:17.972Z,12.88